Latest Weather Observations for Kalumburu

IDD60801

Issued at 9:31 pm CST Friday 29 May 2015 (issued every 30 minutes, with the page automatically refreshed every 10 minutes)

About weather observations | Map of weather stations | Latest weather observations for NT | Other Formats
Station Details ID: 001019 Name: KALUMBURU Lat: -14.30 Lon: 126.65 Height: 23.0 m
Data from the previous 72 hours. | See also: Recent months at Kalumburu
Date/Time
CST
Temp
°C
App
Temp
°C
Dew
Point
Rel
Hum
%
Delta-T
°C
Wind Press
QNH
hPa
Press
MSL
hPa
Rain
since 9 am
mm
Dir
 
Spd
km/h
Gust
km/h
Spd
kts
Gust
kts
29/09:30pm 24.1 23.9 13.0 50 6.4 ESE 6 7 3 4 1014.8 1014.7 0.0
29/09:00pm 26.5 25.7 11.8 40 8.4 ENE 7 9 4 5 1014.5 1014.4 0.0
29/08:30pm 27.6 26.3 11.2 36 9.4 ENE 9 13 5 7 1014.2 1014.1 0.0
29/08:00pm 27.9 27.1 11.0 35 9.6 ENE 6 11 3 6 1013.9 1013.8 0.0
29/07:30pm 28.9 28.0 11.5 34 10.0 NE 7 13 4 7 1013.6 1013.5 0.0
29/07:00pm 29.8 28.5 11.3 32 10.7 NE 9 13 5 7 1013.2 1013.1 0.0
29/06:30pm 30.8 29.2 11.7 31 11.1 NE 11 19 6 10 1012.8 1012.7 0.0
29/06:00pm 32.2 30.2 11.4 28 12.1 ENE 13 24 7 13 1012.4 1012.3 0.0
29/05:30pm 33.2 31.1 11.1 26 12.9 E 13 22 7 12 1012.2 1012.1 0.0
29/05:00pm 33.9 32.3 11.7 26 13.1 ENE 11 19 6 10 1011.8 1011.7 0.0
29/04:30pm 33.7 32.1 11.5 26 13.1 E 11 20 6 11 1011.8 1011.7 0.0
29/04:00pm 34.3 32.1 12.0 25 13.3 E 15 26 8 14 1011.7 1011.6 0.0
29/03:30pm 34.2 31.6 12.0 26 13.2 E 17 28 9 15 1011.6 1011.5 0.0
29/03:00pm 34.8 32.5 13.0 26 13.2 E 17 30 9 16 1011.8 1011.7 0.0
29/02:30pm 34.5 32.3 12.2 26 13.3 E 15 28 8 15 1012.0 1011.9 0.0
29/02:00pm 34.4 32.2 13.3 28 12.8 ENE 17 30 9 16 1012.6 1012.5 0.0
29/01:30pm 34.2 32.5 13.6 29 12.5 E 15 24 8 13 1013.1 1013.0 0.0
29/01:00pm 33.8 32.0 13.3 29 12.4 E 15 26 8 14 1013.7 1013.6 0.0
29/12:30pm 33.2 30.8 12.8 29 12.2 ENE 17 24 9 13 1014.0 1013.9 0.0
29/12:00pm 33.2 32.3 14.8 33 11.4 E 13 19 7 10 1014.4 1014.3 0.0
29/11:30am 32.5 31.3 14.1 32 11.2 ENE 13 20 7 11 1014.8 1014.7 0.0
29/11:00am 31.8 30.2 14.0 34 10.8 E 15 26 8 14 1015.0 1014.9 0.0
29/10:30am 30.8 31.1 16.0 40 9.2 SE 9 20 5 11 1015.2 1015.1 0.0
29/10:00am 28.1 29.3 18.2 55 6.3 S 9 13 5 7 1015.0 1014.9 0.0
29/09:30am 26.3 27.8 18.9 63 4.7 S 9 13 5 7 1015.0 1014.9 0.0
29/09:00am 24.2 26.2 19.1 73 3.3 S 7 13 4 7 1014.7 1014.6 0.0
29/08:30am 22.2 25.3 19.6 85 1.7 SSW 2 11 1 6 1014.4 1014.3 0.0
29/08:00am 19.1 21.7 17.6 91 0.9 CALM 0 0 0 0 1013.9 1013.8 0.0
29/07:30am 18.4 20.7 16.7 90 1.0 CALM 0 0 0 0 1013.6 1013.5 0.0
29/07:00am 18.3 20.5 16.6 90 1.0 CALM 0 0 0 0 1013.3 1013.2 0.0
29/06:30am 18.5 20.8 16.7 89 1.1 CALM 0 0 0 0 1012.8 1012.7 0.0
29/06:00am 18.5 19.9 16.5 88 1.2 SSW 4 7 2 4 1012.7 1012.6 0.0
29/05:30am 19.4 22.0 17.5 89 1.2 CALM 0 0 0 0 1012.6 1012.5 0.0
29/05:00am 19.2 21.7 17.3 89 1.2 CALM 0 0 0 0 1012.6 1012.5 0.0
29/04:30am 19.4 22.0 17.5 89 1.2 CALM 0 0 0 0 1012.5 1012.4 0.0
29/04:00am 19.6 22.4 17.9 90 1.0 CALM 0 0 0 0 1012.6 1012.5 0.0
29/03:30am 19.5 21.4 17.6 89 1.2 SSW 4 7 2 4 1012.8 1012.7 0.0
29/03:00am 19.6 22.3 17.7 89 1.2 CALM 0 0 0 0 1012.8 1012.7 0.0
29/02:30am 19.3 21.9 17.4 89 1.2 CALM 0 0 0 0 1013.1 1013.0 0.0
29/02:00am 19.6 22.2 17.6 88 1.2 CALM 0 4 0 2 1013.4 1013.3 0.0
29/01:30am 19.8 22.5 17.8 88 1.2 CALM 0 0 0 0 1013.8 1013.7 0.0
29/01:00am 20.0 22.7 17.8 87 1.4 CALM 0 0 0 0 1014.0 1013.9 0.0
29/12:30am 20.5 23.5 18.4 88 1.3 CALM 0 0 0 0 1014.1 1014.0 0.0
29/12:00am 20.5 23.5 18.4 88 1.3 CALM 0 0 0 0 1014.3 1014.2 0.0
 
Date/Time
CST
Temp
°C
App
Temp
°C
Dew
Point
Rel
Hum
%
Delta-T
°C
Wind Press
QNH
hPa
Press
MSL
hPa
Rain
since 9 am
mm
Dir
 
Spd
km/h
Gust
km/h
Spd
kts
Gust
kts
28/11:30pm 20.6 23.6 18.4 87 1.4 CALM 0 0 0 0 1014.5 1014.4 0.0
28/11:00pm 20.8 23.8 18.4 86 1.5 CALM 0 0 0 0 1014.4 1014.3 0.0
28/10:30pm 21.2 23.8 18.4 84 1.7 S 2 7 1 4 1014.5 1014.4 0.0
28/10:00pm 21.5 24.5 18.5 83 1.9 CALM 0 0 0 0 1014.5 1014.4 0.0
28/09:30pm 21.8 24.5 17.8 78 2.5 CALM 0 0 0 0 1014.3 1014.2 0.0
28/09:00pm 22.6 25.6 18.4 77 2.6 CALM 0 0 0 0 1014.0 1013.9 0.0
28/08:30pm 23.5 26.7 18.8 75 3.0 CALM 0 0 0 0 1013.6 1013.5 0.0
28/08:00pm 24.1 26.8 17.8 68 3.9 CALM 0 0 0 0 1013.0 1012.9 0.0
28/07:30pm 25.5 28.4 18.2 64 4.6 CALM 0 0 0 0 1012.6 1012.5 0.0
28/07:00pm 27.3 28.6 17.5 55 6.2 NNW 7 9 4 5 1012.3 1012.2 0.0
28/06:30pm 28.6 28.8 16.8 48 7.4 N 11 17 6 9 1011.9 1011.8 0.0
28/06:00pm 30.0 29.6 16.1 43 8.6 N 13 17 7 9 1011.7 1011.6 0.0
28/05:30pm 31.2 30.9 16.4 41 9.3 NNW 13 17 7 9 1011.2 1011.1 0.0
28/05:00pm 32.4 31.0 14.5 33 11.0 NNW 15 24 8 13 1010.9 1010.8 0.0
28/04:30pm 33.2 31.3 14.3 32 11.6 N 17 26 9 14 1010.6 1010.5 0.0
28/04:00pm 35.2 33.8 12.2 25 13.8 ESE 11 20 6 11 1010.4 1010.3 0.0
28/03:30pm 35.0 33.2 12.0 25 13.7 E 13 24 7 13 1010.5 1010.4 0.0
28/03:00pm 35.4 33.7 12.4 25 13.8 ENE 13 19 7 10 1010.8 1010.7 0.0
28/02:30pm 35.1 33.3 12.1 25 13.8 ENE 13 20 7 11 1011.2 1011.1 0.0
28/02:00pm 34.5 32.5 12.8 27 13.1 NE 15 26 8 14 1011.5 1011.4 0.0
28/01:30pm 34.5 32.1 12.8 27 13.1 NE 17 24 9 13 1012.0 1011.9 0.0
28/01:00pm 34.0 32.4 12.9 28 12.7 ENE 13 20 7 11 1012.6 1012.5 0.0
28/12:30pm 33.7 32.4 13.7 30 12.2 ENE 13 19 7 10 1013.1 1013.0 0.0
28/12:00pm 32.9 31.9 13.5 30 11.7 E 11 19 6 10 1013.5 1013.4 0.0
28/11:30am 32.5 31.6 13.7 32 11.4 ESE 11 20 6 11 1013.7 1013.6 0.0
28/11:00am 30.4 31.1 16.0 41 9.0 SSW 7 11 4 6 1013.9 1013.8 0.0
28/10:30am 28.7 30.0 17.6 51 7.0 SSW 7 13 4 7 1014.1 1014.0 0.0
28/10:00am 27.0 28.5 17.5 56 6.0 S 6 9 3 5 1014.2 1014.1 0.0
28/09:30am 25.2 26.8 17.9 64 4.6 SSE 6 7 3 4 1014.1 1014.0 0.0
28/09:00am 22.5 23.3 17.4 73 3.2 S 9 13 5 7 1014.1 1014.0 0.0
28/08:30am 20.5 21.8 17.5 83 1.8 SSW 7 13 4 7 1013.9 1013.8 0.0
28/08:00am 17.9 18.8 16.2 90 1.0 S 6 9 3 5 1013.7 1013.6 0.0
28/07:30am 16.7 18.2 14.7 88 1.2 CALM 0 0 0 0 1013.5 1013.4 0.0
28/07:00am 17.2 18.9 15.2 88 1.2 CALM 0 0 0 0 1013.4 1013.3 0.0
28/06:30am 17.9 19.9 16.1 89 1.1 CALM 0 0 0 0 1012.8 1012.7 0.0
28/06:00am 17.6 19.4 15.6 88 1.2 CALM 0 0 0 0 1012.7 1012.6 0.0
28/05:30am 17.7 19.7 15.9 89 1.1 CALM 0 0 0 0 1012.4 1012.3 0.0
28/05:00am 17.7 19.6 15.7 88 1.2 CALM 0 0 0 0 1012.3 1012.2 0.0
28/04:30am 17.5 18.5 15.3 87 1.3 S 4 7 2 4 1012.4 1012.3 0.0
28/04:00am 17.9 19.9 15.9 88 1.2 CALM 0 0 0 0 1012.5 1012.4 0.0
28/03:30am 17.5 19.2 15.1 86 1.4 CALM 0 0 0 0 1012.6 1012.5 0.0
28/03:00am 17.8 19.6 15.6 87 1.3 CALM 0 0 0 0 1012.8 1012.7 0.0
28/02:30am 18.4 20.3 15.8 85 1.5 CALM 0 0 0 0 1013.2 1013.1 0.0
28/02:00am 18.7 20.8 16.3 86 1.4 CALM 0 0 0 0 1013.4 1013.3 0.0
28/01:30am 19.0 21.1 16.2 84 1.7 CALM 0 0 0 0 1013.5 1013.4 0.0
28/01:00am 19.5 21.7 16.5 83 1.8 CALM 0 0 0 0 1013.6 1013.5 0.0
28/12:30am 19.5 21.6 16.2 81 2.0 CALM 0 0 0 0 1013.8 1013.7 0.0
28/12:00am 19.9 21.9 16.0 78 2.3 CALM 0 0 0 0 1014.0 1013.9 0.0
 
Date/Time
CST
Temp
°C
App
Temp
°C
Dew
Point
Rel
Hum
%
Delta-T
°C
Wind Press
QNH
hPa
Press
MSL
hPa
Rain
since 9 am
mm
Dir
 
Spd
km/h
Gust
km/h
Spd
kts
Gust
kts
27/11:30pm 20.7 23.0 16.7 78 2.4 CALM 0 0 0 0 1014.1 1014.0 0.0
27/11:00pm 21.1 23.3 16.5 75 2.8 CALM 0 0 0 0 1014.0 1013.9 0.0
27/10:30pm 22.3 24.1 15.6 66 4.0 CALM 0 0 0 0 1014.0 1013.9 0.0
27/10:00pm 25.0 25.9 16.7 60 5.1 NW 7 9 4 5 1014.0 1013.9 0.0
27/09:30pm 25.5 26.4 16.1 56 5.8 NW 6 7 3 4 1013.8 1013.7 0.0
27/09:00pm 26.0 27.6 16.0 54 6.1 NW 2 7 1 4 1013.5 1013.4 0.0
27/08:30pm 27.8 28.4 15.8 48 7.4 NNE 7 13 4 7 1013.3 1013.2 0.0
27/08:00pm 28.1 28.5 15.4 46 7.8 NNE 7 13 4 7 1012.8 1012.7 0.0
27/07:30pm 29.2 28.7 15.0 42 8.7 NE 11 22 6 12 1012.3 1012.2 0.0
27/07:00pm 30.0 28.6 14.5 38 9.4 NNE 15 26 8 14 1011.7 1011.6 0.0
27/06:30pm 31.3 30.0 12.6 31 11.1 NE 11 20 6 11 1011.1 1011.0 0.0
27/06:00pm 32.9 31.3 11.4 27 12.6 ENE 11 19 6 10 1010.8 1010.7 0.0
27/05:30pm 33.6 31.6 11.4 25 13.1 ENE 13 20 7 11 1010.6 1010.5 0.0
27/05:00pm 34.3 32.6 12.6 27 13.0 NE 13 19 7 10 1010.5 1010.4 0.0
27/04:30pm 34.8 32.9 11.9 25 13.6 ENE 13 22 7 12 1010.6 1010.5 0.0
27/04:00pm 34.9 34.2 11.9 24 13.7 NNE 7 15 4 8 1010.7 1010.6 0.0
27/03:30pm 34.9 33.4 11.9 24 13.7 ENE 11 19 6 10 1010.8 1010.7 0.0
27/03:00pm 34.8 32.7 11.2 24 13.9 NE 13 24 7 13 1010.9 1010.8 0.0
27/02:30pm 35.3 33.6 12.3 25 13.8 NE 13 20 7 11 1011.1 1011.0 0.0
27/02:00pm 35.2 32.9 11.6 24 14.0 ENE 15 24 8 13 1011.5 1011.4 0.0
27/01:30pm 35.0 33.2 12.0 25 13.7 E 13 28 7 15 1012.1 1012.0 0.0
27/01:00pm 35.2 32.8 12.8 26 13.5 NE 17 26 9 14 1012.7 1012.6 0.0
27/12:30pm 34.0 32.3 12.4 27 12.9 E 13 22 7 12 1013.2 1013.1 0.0
27/12:00pm 33.6 31.2 11.4 25 13.0 E 15 24 8 13 1013.8 1013.7 0.0
27/11:30am 33.3 31.7 12.9 29 12.2 SE 13 22 7 12 1014.2 1014.1 0.0
27/11:00am 32.5 30.4 11.1 27 12.5 ESE 13 17 7 9 1014.5 1014.4 0.0
27/10:30am 29.8 29.7 14.0 38 9.5 SW 7 11 4 6 1014.8 1014.7 0.0
27/10:00am 27.8 27.9 14.4 43 8.1 S 7 9 4 5 1014.9 1014.8 0.0
27/09:30am 25.5 25.4 14.9 52 6.4 S 9 15 5 8 1014.9 1014.8 0.0
27/09:00am 23.8 23.9 15.6 60 4.9 S 9 13 5 7 1014.6 1014.5 0.0
27/08:30am 22.0 22.1 15.6 67 3.8 S 9 13 5 7 1014.3 1014.2 0.0
27/08:00am 20.7 21.3 15.9 74 2.9 SSW 7 11 4 6 1014.0 1013.9 0.0
27/07:30am 20.1 20.4 15.9 77 2.5 S 9 11 5 6 1013.7 1013.6 0.0
27/07:00am 17.4 17.9 15.0 86 1.4 S 6 11 3 6 1013.5 1013.4 0.0
27/06:30am 17.3 19.0 15.1 87 1.3 CALM 0 0 0 0 1013.3 1013.2 0.0
27/06:00am 17.7 19.1 15.3 86 1.4 SSW 2 6 1 3 1013.2 1013.1 0.0
27/05:30am 17.4 18.6 14.9 85 1.4 SSW 2 7 1 4 1013.2 1013.1 0.0
27/05:00am 17.5 19.1 15.0 85 1.5 CALM 0 0 0 0 1013.2 1013.1 0.0
27/04:30am 17.4 19.0 15.0 86 1.4 CALM 0 0 0 0 1013.3 1013.2 0.0
27/04:00am 17.8 19.5 15.2 85 1.5 CALM 0 0 0 0 1013.4 1013.3 0.0
27/03:30am 17.8 19.6 15.4 86 1.4 CALM 0 0 0 0 1013.6 1013.5 0.0
27/03:00am 17.8 19.5 15.2 85 1.5 CALM 0 0 0 0 1014.0 1013.9 0.0
27/02:30am 18.0 18.9 15.1 83 1.7 S 4 7 2 4 1014.4 1014.3 0.0
27/02:00am 18.4 20.1 15.3 82 1.8 CALM 0 0 0 0 1014.7 1014.6 0.0
27/01:30am 18.8 20.6 15.5 81 1.9 CALM 0 0 0 0 1015.0 1014.9 0.0
27/01:00am 18.8 20.6 15.5 81 1.9 CALM 0 0 0 0 1015.4 1015.3 0.0
27/12:30am 19.6 21.6 15.9 79 2.2 CALM 0 0 0 0 1015.6 1015.5 0.0
27/12:00am 19.6 21.6 15.9 79 2.2 CALM 0 0 0 0 1016.0 1015.9 0.0
 
Date/Time
CST
Temp
°C
App
Temp
°C
Dew
Point
Rel
Hum
%
Delta-T
°C
Wind Press
QNH
hPa
Press
MSL
hPa
Rain
since 9 am
mm
Dir
 
Spd
km/h
Gust
km/h
Spd
kts
Gust
kts
26/11:30pm 19.8 21.6 15.4 76 2.6 CALM 0 6 0 3 1016.1 1016.0 0.0

Other Formats:

Comma delimited format used in spreadsheet applications
http://www.bom.gov.au/fwo/IDD60801/IDD60801.94100.axf

JavaScript Object Notation format (JSON) in row-major order
http://www.bom.gov.au/fwo/IDD60801/IDD60801.94100.json